Terminal Aerodrome Forecast
Issued by NWS

Home | Current Version | Previous Version | Text Only | Print | Product List | Glossary On
Versions: 1 2 3 4 5 6 7 8 9 10 11 12 13 14 15 16 17 18 19 20 21 22 23
000
FTUS43 KDLH 161100
TAFBRD
TAF
KBRD 161139Z 1612/1712 22006KT P6SM SKC
     FM161500 25010G16KT P6SM SCT090
     FM162100 24009KT P6SM SCT070
     FM170200 22005KT P6SM SKC=

USA.gov is the U.S. government's official web portal to all federal, state and local government web resources and services.